Terminal Aerodrome Forecast
Issued by NWS

Home | Current Version | Previous Version | Text Only | Print | Product List | Glossary On
Versions: 1 2 3 4 5 6 7 8 9 10 11 12 13 14 15 16
260
FTUS46 KPDT 050043 AAA
TAFPSC
TAF AMD
KPSC 050043Z 0501/0524 30009KT P6SM SCT080 OVC100
     FM050300 27012G18KT P6SM FEW180
     FM051900 22005KT P6SM SCT050 SCT160
     FM052100 25007KT P6SM BKN050 OVC080=

USA.gov is the U.S. government's official web portal to all federal, state and local government web resources and services.